sensor_id;sensor_type;location;lat;lon;timestamp;temperature;humidity
10459;DHT22;5277;48.722;8.736;2022-12-11T00:02:15;0.10;99.90
10459;DHT22;5277;48.722;8.736;2022-12-11T00:04:47;0.10;99.90
10459;DHT22;5277;48.722;8.736;2022-12-11T00:07:21;0.00;99.90
10459;DHT22;5277;48.722;8.736;2022-12-11T00:09:52;0.00;99.90
10459;DHT22;5277;48.722;8.736;2022-12-11T00:12:18;0.00;99.90
10459;DHT22;5277;48.722;8.736;2022-12-11T00:14:46;0.00;99.90
10459;DHT22;5277;48.722;8.736;2022-12-11T00:17:12;0.00;99.90
10459;DHT22;5277;48.722;8.736;2022-12-11T00:19:55;0.00;99.90
10459;DHT22;5277;48.722;8.736;2022-12-11T00:22:38;-0.10;99.90
10459;DHT22;5277;48.722;8.736;2022-12-11T00:25:32;-0.10;99.90
10459;DHT22;5277;48.722;8.736;2022-12-11T00:28:21;-0.20;99.90
10459;DHT22;5277;48.722;8.736;2022-12-11T00:33:48;-0.10;99.90
10459;DHT22;5277;48.722;8.736;2022-12-11T00:36:31;-0.10;99.90
10459;DHT22;5277;48.722;8.736;2022-12-11T00:39:10;-0.20;99.90
10459;DHT22;5277;48.722;8.736;2022-12-11T00:41:48;-0.30;99.90
10459;DHT22;5277;48.722;8.736;2022-12-11T00:44:22;-0.30;99.90
10459;DHT22;5277;48.722;8.736;2022-12-11T00:47:13;-0.30;99.90
10459;DHT22;5277;48.722;8.736;2022-12-11T00:49:50;-0.40;99.90
10459;DHT22;5277;48.722;8.736;2022-12-11T00:53:05;-0.50;99.90
10459;DHT22;5277;48.722;8.736;2022-12-11T00:55:48;-0.60;99.90
10459;DHT22;5277;48.722;8.736;2022-12-11T00:58:25;-0.50;99.90
10459;DHT22;5277;48.722;8.736;2022-12-11T01:01:04;-0.50;99.90
10459;DHT22;5277;48.722;8.736;2022-12-11T01:03:33;-0.50;99.90
10459;DHT22;5277;48.722;8.736;2022-12-11T01:06:05;-0.50;99.90
10459;DHT22;5277;48.722;8.736;2022-12-11T01:11:47;-0.50;99.90
10459;DHT22;5277;48.722;8.736;2022-12-11T01:14:13;-0.50;99.90
10459;DHT22;5277;48.722;8.736;2022-12-11T01:16:41;-0.50;99.90
10459;DHT22;5277;48.722;8.736;2022-12-11T01:19:16;-0.50;99.90
10459;DHT22;5277;48.722;8.736;2022-12-11T01:21:49;-0.50;99.90
10459;DHT22;5277;48.722;8.736;2022-12-11T01:24:18;-0.50;99.90
10459;DHT22;5277;48.722;8.736;2022-12-11T01:26:53;-0.50;99.90
10459;DHT22;5277;48.722;8.736;2022-12-11T01:29:19;-0.50;99.90
10459;DHT22;5277;48.722;8.736;2022-12-11T01:31:47;-0.50;99.90
10459;DHT22;5277;48.722;8.736;2022-12-11T01:34:31;-0.50;99.90
10459;DHT22;5277;48.722;8.736;2022-12-11T01:37:10;-0.50;99.90
10459;DHT22;5277;48.722;8.736;2022-12-11T01:39:43;-0.40;99.90
10459;DHT22;5277;48.722;8.736;2022-12-11T01:42:38;-0.40;99.90
10459;DHT22;5277;48.722;8.736;2022-12-11T01:48:13;-0.50;99.90
10459;DHT22;5277;48.722;8.736;2022-12-11T01:50:48;-0.60;99.90
10459;DHT22;5277;48.722;8.736;2022-12-11T01:53:23;-0.60;99.90
10459;DHT22;5277;48.722;8.736;2022-12-11T01:55:56;-0.70;99.90
10459;DHT22;5277;48.722;8.736;2022-12-11T01:58:32;-0.80;99.90
10459;DHT22;5277;48.722;8.736;2022-12-11T02:01:04;-0.80;99.90
10459;DHT22;5277;48.722;8.736;2022-12-11T02:03:35;-0.80;99.90
10459;DHT22;5277;48.722;8.736;2022-12-11T02:06:04;-0.80;99.90
10459;DHT22;5277;48.722;8.736;2022-12-11T02:08:33;-0.90;99.90
10459;DHT22;5277;48.722;8.736;2022-12-11T02:11:06;-1.00;99.90
10459;DHT22;5277;48.722;8.736;2022-12-11T02:14:23;-0.90;99.90
10459;DHT22;5277;48.722;8.736;2022-12-11T02:16:39;-1.00;99.90
10459;DHT22;5277;48.722;8.736;2022-12-11T02:19:46;-0.90;99.90
10459;DHT22;5277;48.722;8.736;2022-12-11T02:22:36;-1.00;99.90
10459;DHT22;5277;48.722;8.736;2022-12-11T02:31:13;-1.00;99.90
10459;DHT22;5277;48.722;8.736;2022-12-11T02:37:03;-1.10;99.90
10459;DHT22;5277;48.722;8.736;2022-12-11T02:39:31;-1.20;99.90
10459;DHT22;5277;48.722;8.736;2022-12-11T02:41:58;-1.20;99.90
10459;DHT22;5277;48.722;8.736;2022-12-11T02:44:27;-1.20;99.90
10459;DHT22;5277;48.722;8.736;2022-12-11T02:47:05;-1.10;99.90
10459;DHT22;5277;48.722;8.736;2022-12-11T02:49:39;-1.30;99.90
10459;DHT22;5277;48.722;8.736;2022-12-11T02:52:11;-1.30;99.90
10459;DHT22;5277;48.722;8.736;2022-12-11T02:54:38;-1.30;99.90
10459;DHT22;5277;48.722;8.736;2022-12-11T02:57:18;-1.30;99.90
10459;DHT22;5277;48.722;8.736;2022-12-11T02:59:46;-1.30;99.90
10459;DHT22;5277;48.722;8.736;2022-12-11T03:02:13;-1.40;99.90
10459;DHT22;5277;48.722;8.736;2022-12-11T03:04:41;-1.40;99.90
10459;DHT22;5277;48.722;8.736;2022-12-11T03:07:26;-1.30;99.90
10459;DHT22;5277;48.722;8.736;2022-12-11T03:09:53;-1.30;99.90
10459;DHT22;5277;48.722;8.736;2022-12-11T03:12:27;-1.40;99.90
10459;DHT22;5277;48.722;8.736;2022-12-11T03:14:53;-1.40;99.90
10459;DHT22;5277;48.722;8.736;2022-12-11T03:17:26;-1.30;99.90
10459;DHT22;5277;48.722;8.736;2022-12-11T03:20:25;-1.30;99.90
10459;DHT22;5277;48.722;8.736;2022-12-11T03:23:02;-1.20;99.90
10459;DHT22;5277;48.722;8.736;2022-12-11T03:26:00;-1.30;99.90
10459;DHT22;5277;48.722;8.736;2022-12-11T03:31:28;-1.10;99.90
10459;DHT22;5277;48.722;8.736;2022-12-11T03:33:59;-1.10;99.90
10459;DHT22;5277;48.722;8.736;2022-12-11T03:36:31;-1.10;99.90
10459;DHT22;5277;48.722;8.736;2022-12-11T03:39:07;-1.10;99.90
10459;DHT22;5277;48.722;8.736;2022-12-11T03:41:36;-1.00;99.90
10459;DHT22;5277;48.722;8.736;2022-12-11T03:44:03;-1.00;99.90
10459;DHT22;5277;48.722;8.736;2022-12-11T03:46:31;-1.00;99.90
10459;DHT22;5277;48.722;8.736;2022-12-11T03:49:06;-0.90;99.90
10459;DHT22;5277;48.722;8.736;2022-12-11T03:51:34;-0.80;99.90
10459;DHT22;5277;48.722;8.736;2022-12-11T03:54:00;-0.80;99.90
10459;DHT22;5277;48.722;8.736;2022-12-11T03:56:29;-0.80;99.90
10459;DHT22;5277;48.722;8.736;2022-12-11T03:58:55;-0.80;99.90
10459;DHT22;5277;48.722;8.736;2022-12-11T04:01:21;-0.70;99.90
10459;DHT22;5277;48.722;8.736;2022-12-11T04:03:47;-0.70;99.90
10459;DHT22;5277;48.722;8.736;2022-12-11T04:06:12;-0.70;99.90
10459;DHT22;5277;48.722;8.736;2022-12-11T04:08:38;-0.60;99.90
10459;DHT22;5277;48.722;8.736;2022-12-11T04:11:03;-0.60;99.90
10459;DHT22;5277;48.722;8.736;2022-12-11T04:13:48;-0.70;99.90
10459;DHT22;5277;48.722;8.736;2022-12-11T04:16:33;-0.70;99.90
10459;DHT22;5277;48.722;8.736;2022-12-11T04:18:59;-0.70;99.90
10459;DHT22;5277;48.722;8.736;2022-12-11T04:21:43;-0.60;99.90
10459;DHT22;5277;48.722;8.736;2022-12-11T04:24:27;-0.60;99.90
10459;DHT22;5277;48.722;8.736;2022-12-11T04:26:53;-0.60;99.90
10459;DHT22;5277;48.722;8.736;2022-12-11T04:29:19;-0.50;99.90
10459;DHT22;5277;48.722;8.736;2022-12-11T04:31:45;-0.50;99.90
10459;DHT22;5277;48.722;8.736;2022-12-11T04:34:10;-0.50;99.90
10459;DHT22;5277;48.722;8.736;2022-12-11T04:36:36;-0.60;99.90
10459;DHT22;5277;48.722;8.736;2022-12-11T04:39:04;-0.50;99.90
10459;DHT22;5277;48.722;8.736;2022-12-11T04:41:29;-0.60;99.90
10459;DHT22;5277;48.722;8.736;2022-12-11T04:43:55;-0.70;99.90
10459;DHT22;5277;48.722;8.736;2022-12-11T04:46:22;-0.70;99.90
10459;DHT22;5277;48.722;8.736;2022-12-11T04:48:49;-0.70;99.90
10459;DHT22;5277;48.722;8.736;2022-12-11T04:51:15;-0.70;99.90
10459;DHT22;5277;48.722;8.736;2022-12-11T04:53:41;-0.70;99.90
10459;DHT22;5277;48.722;8.736;2022-12-11T04:56:09;-0.60;99.90
10459;DHT22;5277;48.722;8.736;2022-12-11T04:58:35;-0.60;99.90
10459;DHT22;5277;48.722;8.736;2022-12-11T05:03:33;-0.60;99.90
10459;DHT22;5277;48.722;8.736;2022-12-11T05:05:59;-0.50;99.90
10459;DHT22;5277;48.722;8.736;2022-12-11T05:08:25;-0.60;99.90
10459;DHT22;5277;48.722;8.736;2022-12-11T05:11:02;-0.60;99.90
10459;DHT22;5277;48.722;8.736;2022-12-11T05:13:28;-0.60;99.90
10459;DHT22;5277;48.722;8.736;2022-12-11T05:15:54;-0.60;99.90
10459;DHT22;5277;48.722;8.736;2022-12-11T05:18:20;-0.60;99.90
10459;DHT22;5277;48.722;8.736;2022-12-11T05:20:58;-0.60;99.90
10459;DHT22;5277;48.722;8.736;2022-12-11T05:23:24;-0.50;99.90
10459;DHT22;5277;48.722;8.736;2022-12-11T05:25:51;-0.50;99.90
10459;DHT22;5277;48.722;8.736;2022-12-11T05:28:17;-0.50;99.90
10459;DHT22;5277;48.722;8.736;2022-12-11T05:30:43;-0.40;99.90
10459;DHT22;5277;48.722;8.736;2022-12-11T05:33:08;-0.40;99.90
10459;DHT22;5277;48.722;8.736;2022-12-11T05:35:34;-0.40;99.90
10459;DHT22;5277;48.722;8.736;2022-12-11T05:37:59;-0.40;99.90
10459;DHT22;5277;48.722;8.736;2022-12-11T05:40:25;-0.40;99.90
10459;DHT22;5277;48.722;8.736;2022-12-11T05:42:51;-0.40;99.90
10459;DHT22;5277;48.722;8.736;2022-12-11T05:45:17;-0.40;99.90
10459;DHT22;5277;48.722;8.736;2022-12-11T05:47:42;-0.40;99.90
10459;DHT22;5277;48.722;8.736;2022-12-11T05:50:09;-0.40;99.90
10459;DHT22;5277;48.722;8.736;2022-12-11T05:52:35;-0.40;99.90
10459;DHT22;5277;48.722;8.736;2022-12-11T05:55:01;-0.40;99.90
10459;DHT22;5277;48.722;8.736;2022-12-11T05:57:26;-0.40;99.90
10459;DHT22;5277;48.722;8.736;2022-12-11T05:59:52;-0.40;99.90
10459;DHT22;5277;48.722;8.736;2022-12-11T06:02:20;-0.40;99.90
10459;DHT22;5277;48.722;8.736;2022-12-11T06:04:51;-0.40;99.90
10459;DHT22;5277;48.722;8.736;2022-12-11T06:07:17;-0.50;99.90
10459;DHT22;5277;48.722;8.736;2022-12-11T06:09:43;-0.50;99.90
10459;DHT22;5277;48.722;8.736;2022-12-11T06:12:12;-0.60;99.90
10459;DHT22;5277;48.722;8.736;2022-12-11T06:14:38;-0.60;99.90
10459;DHT22;5277;48.722;8.736;2022-12-11T06:17:05;-0.70;99.90
10459;DHT22;5277;48.722;8.736;2022-12-11T06:19:34;-0.70;99.90
10459;DHT22;5277;48.722;8.736;2022-12-11T06:22:09;-0.90;99.90
10459;DHT22;5277;48.722;8.736;2022-12-11T06:24:35;-0.80;99.90
10459;DHT22;5277;48.722;8.736;2022-12-11T06:27:04;-0.90;99.90
10459;DHT22;5277;48.722;8.736;2022-12-11T06:29:33;-1.00;99.90
10459;DHT22;5277;48.722;8.736;2022-12-11T06:32:02;-1.00;99.90
10459;DHT22;5277;48.722;8.736;2022-12-11T06:34:34;-1.00;99.90
10459;DHT22;5277;48.722;8.736;2022-12-11T06:37:05;-0.90;99.90
10459;DHT22;5277;48.722;8.736;2022-12-11T06:39:37;-1.10;99.90
10459;DHT22;5277;48.722;8.736;2022-12-11T06:42:08;-1.10;99.90
10459;DHT22;5277;48.722;8.736;2022-12-11T06:44:34;-1.20;99.90
10459;DHT22;5277;48.722;8.736;2022-12-11T06:47:00;-1.20;99.90
10459;DHT22;5277;48.722;8.736;2022-12-11T06:49:25;-1.20;99.90
10459;DHT22;5277;48.722;8.736;2022-12-11T06:51:51;-1.30;99.90
10459;DHT22;5277;48.722;8.736;2022-12-11T06:54:16;-1.30;99.90
10459;DHT22;5277;48.722;8.736;2022-12-11T06:56:42;-1.20;99.90
10459;DHT22;5277;48.722;8.736;2022-12-11T06:59:10;-1.40;99.90
10459;DHT22;5277;48.722;8.736;2022-12-11T07:01:37;-1.30;99.90
10459;DHT22;5277;48.722;8.736;2022-12-11T07:04:03;-1.40;99.90
10459;DHT22;5277;48.722;8.736;2022-12-11T07:06:28;-1.40;99.90
10459;DHT22;5277;48.722;8.736;2022-12-11T07:08:55;-1.40;99.90
10459;DHT22;5277;48.722;8.736;2022-12-11T07:11:21;-1.50;99.90
10459;DHT22;5277;48.722;8.736;2022-12-11T07:13:47;-1.30;99.90
10459;DHT22;5277;48.722;8.736;2022-12-11T07:16:14;-1.40;99.90
10459;DHT22;5277;48.722;8.736;2022-12-11T07:18:45;-1.30;99.90
10459;DHT22;5277;48.722;8.736;2022-12-11T07:21:12;-1.30;99.90
10459;DHT22;5277;48.722;8.736;2022-12-11T07:23:38;-1.30;99.90
10459;DHT22;5277;48.722;8.736;2022-12-11T07:26:09;-1.30;99.90
10459;DHT22;5277;48.722;8.736;2022-12-11T07:28:35;-1.30;99.90
10459;DHT22;5277;48.722;8.736;2022-12-11T07:31:09;-1.30;99.90
10459;DHT22;5277;48.722;8.736;2022-12-11T07:33:35;-1.20;99.90
10459;DHT22;5277;48.722;8.736;2022-12-11T07:36:03;-1.20;99.90
10459;DHT22;5277;48.722;8.736;2022-12-11T07:38:28;-1.20;99.90
10459;DHT22;5277;48.722;8.736;2022-12-11T07:40:54;-1.20;99.90
10459;DHT22;5277;48.722;8.736;2022-12-11T07:43:20;-1.10;99.90
10459;DHT22;5277;48.722;8.736;2022-12-11T07:45:45;-1.10;99.90
10459;DHT22;5277;48.722;8.736;2022-12-11T07:48:11;-1.00;99.90
10459;DHT22;5277;48.722;8.736;2022-12-11T07:50:37;-1.00;99.90
10459;DHT22;5277;48.722;8.736;2022-12-11T07:53:03;-1.00;99.90
10459;DHT22;5277;48.722;8.736;2022-12-11T07:55:28;-0.90;99.90
10459;DHT22;5277;48.722;8.736;2022-12-11T07:57:54;-0.90;99.90
10459;DHT22;5277;48.722;8.736;2022-12-11T08:00:19;-0.80;99.90
10459;DHT22;5277;48.722;8.736;2022-12-11T08:02:45;-0.80;99.90
10459;DHT22;5277;48.722;8.736;2022-12-11T08:05:11;-0.70;99.90
10459;DHT22;5277;48.722;8.736;2022-12-11T08:07:37;-0.70;99.90
10459;DHT22;5277;48.722;8.736;2022-12-11T08:10:03;-0.70;99.90
10459;DHT22;5277;48.722;8.736;2022-12-11T08:12:29;-0.60;99.90
10459;DHT22;5277;48.722;8.736;2022-12-11T08:14:55;-0.60;99.90
10459;DHT22;5277;48.722;8.736;2022-12-11T08:17:21;-0.50;99.90
10459;DHT22;5277;48.722;8.736;2022-12-11T08:19:46;-0.40;99.90
10459;DHT22;5277;48.722;8.736;2022-12-11T08:22:12;-0.30;99.90
10459;DHT22;5277;48.722;8.736;2022-12-11T08:24:38;-0.20;99.90
10459;DHT22;5277;48.722;8.736;2022-12-11T08:27:04;-0.10;99.90
10459;DHT22;5277;48.722;8.736;2022-12-11T08:29:31;0.00;99.90
10459;DHT22;5277;48.722;8.736;2022-12-11T08:31:56;0.10;99.90
10459;DHT22;5277;48.722;8.736;2022-12-11T08:34:22;0.10;99.90
10459;DHT22;5277;48.722;8.736;2022-12-11T08:36:48;0.10;99.90
10459;DHT22;5277;48.722;8.736;2022-12-11T08:39:13;0.20;99.90
10459;DHT22;5277;48.722;8.736;2022-12-11T08:41:39;0.20;99.90
10459;DHT22;5277;48.722;8.736;2022-12-11T08:44:10;0.30;99.90
10459;DHT22;5277;48.722;8.736;2022-12-11T08:46:36;0.20;99.90
10459;DHT22;5277;48.722;8.736;2022-12-11T08:49:02;0.30;99.90
10459;DHT22;5277;48.722;8.736;2022-12-11T08:51:36;0.30;99.90
10459;DHT22;5277;48.722;8.736;2022-12-11T08:54:02;0.30;99.90
10459;DHT22;5277;48.722;8.736;2022-12-11T08:56:33;0.30;99.90
10459;DHT22;5277;48.722;8.736;2022-12-11T08:58:59;0.40;99.90
10459;DHT22;5277;48.722;8.736;2022-12-11T09:01:28;0.30;99.90
10459;DHT22;5277;48.722;8.736;2022-12-11T09:03:56;0.40;99.90
10459;DHT22;5277;48.722;8.736;2022-12-11T09:06:28;0.60;99.90
10459;DHT22;5277;48.722;8.736;2022-12-11T09:09:01;0.60;99.90
10459;DHT22;5277;48.722;8.736;2022-12-11T09:11:36;0.70;99.90
10459;DHT22;5277;48.722;8.736;2022-12-11T09:14:34;0.70;99.90
10459;DHT22;5277;48.722;8.736;2022-12-11T09:17:06;0.70;99.90
10459;DHT22;5277;48.722;8.736;2022-12-11T09:19:33;0.80;99.90
10459;DHT22;5277;48.722;8.736;2022-12-11T09:22:06;0.70;99.90
10459;DHT22;5277;48.722;8.736;2022-12-11T09:24:57;0.80;99.90
10459;DHT22;5277;48.722;8.736;2022-12-11T09:27:33;0.80;99.90
10459;DHT22;5277;48.722;8.736;2022-12-11T09:30:13;0.90;99.90
10459;DHT22;5277;48.722;8.736;2022-12-11T09:35:58;0.80;99.70
10459;DHT22;5277;48.722;8.736;2022-12-11T09:38:28;0.90;99.90
10459;DHT22;5277;48.722;8.736;2022-12-11T09:44:29;1.00;99.80
10459;DHT22;5277;48.722;8.736;2022-12-11T09:47:22;1.00;99.80
10459;DHT22;5277;48.722;8.736;2022-12-11T09:50:14;1.00;99.80
10459;DHT22;5277;48.722;8.736;2022-12-11T09:52:56;1.00;99.70
10459;DHT22;5277;48.722;8.736;2022-12-11T10:07:45;1.10;99.90
10459;DHT22;5277;48.722;8.736;2022-12-11T10:13:14;1.30;99.80
10459;DHT22;5277;48.722;8.736;2022-12-11T10:16:03;1.40;99.90
10459;DHT22;5277;48.722;8.736;2022-12-11T10:18:33;1.60;99.70
10459;DHT22;5277;48.722;8.736;2022-12-11T10:21:24;1.70;99.70
10459;DHT22;5277;48.722;8.736;2022-12-11T10:23:57;1.70;99.50
10459;DHT22;5277;48.722;8.736;2022-12-11T10:26:23;1.80;99.40
10459;DHT22;5277;48.722;8.736;2022-12-11T10:28:49;1.80;99.20
10459;DHT22;5277;48.722;8.736;2022-12-11T10:31:31;1.90;99.00
10459;DHT22;5277;48.722;8.736;2022-12-11T10:36:47;2.10;98.70
10459;DHT22;5277;48.722;8.736;2022-12-11T10:39:18;2.20;98.80
10459;DHT22;5277;48.722;8.736;2022-12-11T10:41:57;2.10;98.50
10459;DHT22;5277;48.722;8.736;2022-12-11T10:44:24;2.30;98.70
10459;DHT22;5277;48.722;8.736;2022-12-11T10:47:24;2.40;98.60
10459;DHT22;5277;48.722;8.736;2022-12-11T10:50:20;2.40;98.50
10459;DHT22;5277;48.722;8.736;2022-12-11T10:52:49;2.50;98.40
10459;DHT22;5277;48.722;8.736;2022-12-11T10:55:42;2.60;98.40
10459;DHT22;5277;48.722;8.736;2022-12-11T10:58:20;2.60;98.30
10459;DHT22;5277;48.722;8.736;2022-12-11T11:01:07;2.70;98.20
10459;DHT22;5277;48.722;8.736;2022-12-11T11:09:42;2.70;98.00
10459;DHT22;5277;48.722;8.736;2022-12-11T11:12:43;2.70;98.30
10459;DHT22;5277;48.722;8.736;2022-12-11T11:17:50;2.80;98.60
10459;DHT22;5277;48.722;8.736;2022-12-11T11:20:47;2.90;98.00
10459;DHT22;5277;48.722;8.736;2022-12-11T11:26:37;3.00;98.00
10459;DHT22;5277;48.722;8.736;2022-12-11T11:32:45;3.10;97.90
10459;DHT22;5277;48.722;8.736;2022-12-11T11:35:21;3.00;98.00
10459;DHT22;5277;48.722;8.736;2022-12-11T11:38:39;3.00;98.00
10459;DHT22;5277;48.722;8.736;2022-12-11T11:41:59;3.10;97.90
10459;DHT22;5277;48.722;8.736;2022-12-11T11:44:39;3.20;97.90
10459;DHT22;5277;48.722;8.736;2022-12-11T11:50:43;3.20;97.50
10459;DHT22;5277;48.722;8.736;2022-12-11T11:53:51;3.20;97.30
10459;DHT22;5277;48.722;8.736;2022-12-11T12:03:17;3.20;97.20
10459;DHT22;5277;48.722;8.736;2022-12-11T12:20:59;3.10;97.30
10459;DHT22;5277;48.722;8.736;2022-12-11T12:23:46;3.00;97.00
10459;DHT22;5277;48.722;8.736;2022-12-11T12:32:39;3.20;97.40
10459;DHT22;5277;48.722;8.736;2022-12-11T12:35:37;3.20;96.80
10459;DHT22;5277;48.722;8.736;2022-12-11T12:44:17;3.10;97.20
10459;DHT22;5277;48.722;8.736;2022-12-11T12:47:01;3.20;97.40
10459;DHT22;5277;48.722;8.736;2022-12-11T12:59:34;3.10;97.40
10459;DHT22;5277;48.722;8.736;2022-12-11T13:05:43;3.00;97.40
10459;DHT22;5277;48.722;8.736;2022-12-11T13:08:40;3.10;96.70
10459;DHT22;5277;48.722;8.736;2022-12-11T13:11:18;3.10;97.00
10459;DHT22;5277;48.722;8.736;2022-12-11T13:14:06;3.10;96.60
10459;DHT22;5277;48.722;8.736;2022-12-11T13:20:44;3.00;97.20
10459;DHT22;5277;48.722;8.736;2022-12-11T13:23:53;2.90;97.70
10459;DHT22;5277;48.722;8.736;2022-12-11T13:27:20;2.90;98.10
10459;DHT22;5277;48.722;8.736;2022-12-11T13:37:15;2.90;98.20
10459;DHT22;5277;48.722;8.736;2022-12-11T13:40:26;2.90;97.50
10459;DHT22;5277;48.722;8.736;2022-12-11T13:43:16;2.90;97.90
10459;DHT22;5277;48.722;8.736;2022-12-11T13:46:16;2.80;98.00
10459;DHT22;5277;48.722;8.736;2022-12-11T13:49:27;3.00;97.80
10459;DHT22;5277;48.722;8.736;2022-12-11T14:05:21;3.00;97.50
10459;DHT22;5277;48.722;8.736;2022-12-11T14:08:43;3.00;97.50
10459;DHT22;5277;48.722;8.736;2022-12-11T14:30:54;2.90;98.50
10459;DHT22;5277;48.722;8.736;2022-12-11T14:33:27;2.90;98.20
10459;DHT22;5277;48.722;8.736;2022-12-11T14:35:54;2.90;98.40
10459;DHT22;5277;48.722;8.736;2022-12-11T14:38:37;2.90;98.60
10459;DHT22;5277;48.722;8.736;2022-12-11T14:44:28;2.80;99.20
10459;DHT22;5277;48.722;8.736;2022-12-11T14:47:02;2.90;99.10
10459;DHT22;5277;48.722;8.736;2022-12-11T14:49:45;2.80;99.20
10459;DHT22;5277;48.722;8.736;2022-12-11T14:52:28;2.80;99.40
10459;DHT22;5277;48.722;8.736;2022-12-11T14:57:41;2.70;99.70
10459;DHT22;5277;48.722;8.736;2022-12-11T15:05:55;2.60;99.30
10459;DHT22;5277;48.722;8.736;2022-12-11T15:08:30;2.60;99.30
10459;DHT22;5277;48.722;8.736;2022-12-11T15:11:03;2.60;99.80
10459;DHT22;5277;48.722;8.736;2022-12-11T15:13:31;2.60;99.90
10459;DHT22;5277;48.722;8.736;2022-12-11T15:15:58;2.50;99.90
10459;DHT22;5277;48.722;8.736;2022-12-11T15:18:25;2.50;99.90
10459;DHT22;5277;48.722;8.736;2022-12-11T15:21:00;2.40;99.70
10459;DHT22;5277;48.722;8.736;2022-12-11T15:23:27;2.40;99.90
10459;DHT22;5277;48.722;8.736;2022-12-11T15:25:56;2.30;99.90
10459;DHT22;5277;48.722;8.736;2022-12-11T15:28:32;2.20;99.90
10459;DHT22;5277;48.722;8.736;2022-12-11T15:31:01;2.30;99.90
10459;DHT22;5277;48.722;8.736;2022-12-11T15:33:27;2.30;99.90
10459;DHT22;5277;48.722;8.736;2022-12-11T15:36:04;2.30;99.90
10459;DHT22;5277;48.722;8.736;2022-12-11T15:38:33;2.30;99.90
10459;DHT22;5277;48.722;8.736;2022-12-11T15:41:00;2.30;99.90
10459;DHT22;5277;48.722;8.736;2022-12-11T15:43:27;2.20;99.90
10459;DHT22;5277;48.722;8.736;2022-12-11T15:45:53;2.20;99.90
10459;DHT22;5277;48.722;8.736;2022-12-11T15:48:18;2.10;99.90
10459;DHT22;5277;48.722;8.736;2022-12-11T15:50:44;2.00;99.90
10459;DHT22;5277;48.722;8.736;2022-12-11T15:53:09;2.00;99.90
10459;DHT22;5277;48.722;8.736;2022-12-11T15:55:36;2.00;99.90
10459;DHT22;5277;48.722;8.736;2022-12-11T15:58:06;1.90;99.90
10459;DHT22;5277;48.722;8.736;2022-12-11T16:00:32;1.80;99.90
10459;DHT22;5277;48.722;8.736;2022-12-11T16:02:58;1.80;99.90
10459;DHT22;5277;48.722;8.736;2022-12-11T16:05:24;1.80;99.90
10459;DHT22;5277;48.722;8.736;2022-12-11T16:07:50;1.70;99.90
10459;DHT22;5277;48.722;8.736;2022-12-11T16:10:20;1.70;99.90
10459;DHT22;5277;48.722;8.736;2022-12-11T16:12:46;1.60;99.90
10459;DHT22;5277;48.722;8.736;2022-12-11T16:15:12;1.60;99.90
10459;DHT22;5277;48.722;8.736;2022-12-11T16:17:39;1.50;99.90
10459;DHT22;5277;48.722;8.736;2022-12-11T16:20:07;1.50;99.90
10459;DHT22;5277;48.722;8.736;2022-12-11T16:22:33;1.50;99.90
10459;DHT22;5277;48.722;8.736;2022-12-11T16:24:58;1.50;99.90
10459;DHT22;5277;48.722;8.736;2022-12-11T16:27:24;1.50;99.90
10459;DHT22;5277;48.722;8.736;2022-12-11T16:29:50;1.60;99.90
10459;DHT22;5277;48.722;8.736;2022-12-11T16:32:16;1.50;99.90
10459;DHT22;5277;48.722;8.736;2022-12-11T16:34:41;1.40;99.90
10459;DHT22;5277;48.722;8.736;2022-12-11T16:37:07;1.40;99.90
10459;DHT22;5277;48.722;8.736;2022-12-11T16:39:34;1.40;99.90
10459;DHT22;5277;48.722;8.736;2022-12-11T16:42:01;1.40;99.90
10459;DHT22;5277;48.722;8.736;2022-12-11T16:44:27;1.40;99.90
10459;DHT22;5277;48.722;8.736;2022-12-11T16:46:53;1.30;99.90
10459;DHT22;5277;48.722;8.736;2022-12-11T16:49:20;1.40;99.90
10459;DHT22;5277;48.722;8.736;2022-12-11T16:51:46;1.40;99.90
10459;DHT22;5277;48.722;8.736;2022-12-11T16:54:13;1.40;99.90
10459;DHT22;5277;48.722;8.736;2022-12-11T16:56:39;1.40;99.90
10459;DHT22;5277;48.722;8.736;2022-12-11T16:59:05;1.40;99.90
10459;DHT22;5277;48.722;8.736;2022-12-11T17:01:30;1.40;99.90
10459;DHT22;5277;48.722;8.736;2022-12-11T17:03:56;1.40;99.90
10459;DHT22;5277;48.722;8.736;2022-12-11T17:06:23;1.40;99.90
10459;DHT22;5277;48.722;8.736;2022-12-11T17:08:49;1.40;99.90
10459;DHT22;5277;48.722;8.736;2022-12-11T17:11:17;1.40;99.90
10459;DHT22;5277;48.722;8.736;2022-12-11T17:13:43;1.30;99.90
10459;DHT22;5277;48.722;8.736;2022-12-11T17:16:14;1.40;99.90
10459;DHT22;5277;48.722;8.736;2022-12-11T17:18:41;1.30;99.90
10459;DHT22;5277;48.722;8.736;2022-12-11T17:21:15;1.40;99.90
10459;DHT22;5277;48.722;8.736;2022-12-11T17:23:41;1.40;99.90
10459;DHT22;5277;48.722;8.736;2022-12-11T17:26:07;1.50;99.90
10459;DHT22;5277;48.722;8.736;2022-12-11T17:28:36;1.40;99.90
10459;DHT22;5277;48.722;8.736;2022-12-11T17:31:04;1.40;99.90
10459;DHT22;5277;48.722;8.736;2022-12-11T17:33:29;1.50;99.90
10459;DHT22;5277;48.722;8.736;2022-12-11T17:35:59;1.50;99.90
10459;DHT22;5277;48.722;8.736;2022-12-11T17:38:24;1.50;99.90
10459;DHT22;5277;48.722;8.736;2022-12-11T17:40:50;1.50;99.90
10459;DHT22;5277;48.722;8.736;2022-12-11T17:43:15;1.40;99.90
10459;DHT22;5277;48.722;8.736;2022-12-11T17:45:42;1.40;99.90
10459;DHT22;5277;48.722;8.736;2022-12-11T17:48:09;1.40;99.90
10459;DHT22;5277;48.722;8.736;2022-12-11T17:50:42;1.40;99.90
10459;DHT22;5277;48.722;8.736;2022-12-11T17:53:09;1.30;99.90
10459;DHT22;5277;48.722;8.736;2022-12-11T17:55:37;1.20;99.90
10459;DHT22;5277;48.722;8.736;2022-12-11T17:58:07;1.20;99.90
10459;DHT22;5277;48.722;8.736;2022-12-11T18:00:33;1.10;99.90
10459;DHT22;5277;48.722;8.736;2022-12-11T18:02:58;1.10;99.90
10459;DHT22;5277;48.722;8.736;2022-12-11T18:05:24;1.10;99.90
10459;DHT22;5277;48.722;8.736;2022-12-11T18:07:50;1.10;99.90
10459;DHT22;5277;48.722;8.736;2022-12-11T18:10:15;1.00;99.90
10459;DHT22;5277;48.722;8.736;2022-12-11T18:12:41;0.90;99.90
10459;DHT22;5277;48.722;8.736;2022-12-11T18:15:07;0.90;99.90
10459;DHT22;5277;48.722;8.736;2022-12-11T18:17:32;0.80;99.90
10459;DHT22;5277;48.722;8.736;2022-12-11T18:19:59;0.70;99.90
10459;DHT22;5277;48.722;8.736;2022-12-11T18:22:25;0.60;99.90
10459;DHT22;5277;48.722;8.736;2022-12-11T18:24:50;0.60;99.90
10459;DHT22;5277;48.722;8.736;2022-12-11T18:27:16;0.60;99.90
10459;DHT22;5277;48.722;8.736;2022-12-11T18:29:42;0.50;99.90
10459;DHT22;5277;48.722;8.736;2022-12-11T18:32:07;0.50;99.90
10459;DHT22;5277;48.722;8.736;2022-12-11T18:34:33;0.40;99.90
10459;DHT22;5277;48.722;8.736;2022-12-11T18:36:58;0.40;99.90
10459;DHT22;5277;48.722;8.736;2022-12-11T18:39:24;0.40;99.90
10459;DHT22;5277;48.722;8.736;2022-12-11T18:41:49;0.30;99.90
10459;DHT22;5277;48.722;8.736;2022-12-11T18:44:15;0.30;99.90
10459;DHT22;5277;48.722;8.736;2022-12-11T18:46:49;0.30;99.90
10459;DHT22;5277;48.722;8.736;2022-12-11T18:49:15;0.30;99.90
10459;DHT22;5277;48.722;8.736;2022-12-11T18:51:41;0.30;99.90
10459;DHT22;5277;48.722;8.736;2022-12-11T18:54:06;0.30;99.90
10459;DHT22;5277;48.722;8.736;2022-12-11T18:56:34;0.20;99.90
10459;DHT22;5277;48.722;8.736;2022-12-11T18:59:01;0.20;99.90
10459;DHT22;5277;48.722;8.736;2022-12-11T19:01:27;0.20;99.90
10459;DHT22;5277;48.722;8.736;2022-12-11T19:03:58;0.20;99.90
10459;DHT22;5277;48.722;8.736;2022-12-11T19:06:25;0.20;99.90
10459;DHT22;5277;48.722;8.736;2022-12-11T19:08:53;0.20;99.90
10459;DHT22;5277;48.722;8.736;2022-12-11T19:11:21;0.20;99.90
10459;DHT22;5277;48.722;8.736;2022-12-11T19:13:47;0.30;99.90
10459;DHT22;5277;48.722;8.736;2022-12-11T19:16:21;0.30;99.90
10459;DHT22;5277;48.722;8.736;2022-12-11T19:18:47;0.30;99.90